createdAt,value
2023-04-26T00:00:31.467Z,7.50
2023-04-26T00:03:17.704Z,7.50
2023-04-26T00:06:03.826Z,7.40
2023-04-26T00:08:49.725Z,6.70
2023-04-26T00:11:35.418Z,7.30
2023-04-26T00:14:21.158Z,7.20
2023-04-26T00:17:06.764Z,7.30
2023-04-26T00:19:52.054Z,7.20
2023-04-26T00:22:37.535Z,7.20
2023-04-26T00:25:22.737Z,9.10
2023-04-26T00:28:08.358Z,7.20
2023-04-26T00:30:53.819Z,7.10
2023-04-26T00:33:39.325Z,7.90
2023-04-26T00:36:24.947Z,7.00
2023-04-26T00:39:10.694Z,6.90
2023-04-26T00:41:56.169Z,7.40
2023-04-26T00:44:41.336Z,6.50
2023-04-26T00:47:29.418Z,6.70
2023-04-26T00:50:15.125Z,6.60
2023-04-26T00:53:02.300Z,6.50
2023-04-26T00:55:47.964Z,6.50
2023-04-26T00:58:33.439Z,6.60
2023-04-26T01:01:18.825Z,6.80
2023-04-26T01:04:04.737Z,8.70
2023-04-26T01:06:50.716Z,6.50
2023-04-26T01:09:36.108Z,6.40
2023-04-26T01:12:23.078Z,6.50
2023-04-26T01:15:09.649Z,6.40
2023-04-26T01:17:55.163Z,6.40
2023-04-26T01:20:41.792Z,6.40
2023-04-26T01:23:27.175Z,8.00
2023-04-26T01:26:12.759Z,6.50
2023-04-26T01:28:58.859Z,6.50
2023-04-26T01:31:44.995Z,6.70
2023-04-26T01:34:30.962Z,6.40
2023-04-26T01:37:16.584Z,6.30
2023-04-26T01:40:02.281Z,6.30
2023-04-26T01:42:47.639Z,6.10
2023-04-26T01:45:33.568Z,6.10
2023-04-26T01:48:18.707Z,6.10
2023-04-26T01:51:04.689Z,6.60
2023-04-26T01:53:50.494Z,6.10
2023-04-26T01:56:35.865Z,6.00
2023-04-26T01:59:21.371Z,6.20
2023-04-26T02:02:07.074Z,6.10
2023-04-26T02:04:52.382Z,7.00
2023-04-26T02:07:37.856Z,6.20
2023-04-26T02:10:23.360Z,6.30
2023-04-26T02:13:08.954Z,7.60
2023-04-26T02:15:55.024Z,6.10
2023-04-26T02:18:41.677Z,6.10
2023-04-26T02:21:28.328Z,6.00
2023-04-26T02:24:13.820Z,5.90
2023-04-26T02:27:03.767Z,6.00
2023-04-26T02:29:49.611Z,5.90
2023-04-26T02:32:35.032Z,5.80
2023-04-26T02:35:20.582Z,5.70
2023-04-26T02:38:06.142Z,5.80
2023-04-26T02:41:01.645Z,5.70
2023-04-26T02:43:47.249Z,5.60
2023-04-26T02:46:32.597Z,5.70
2023-04-26T02:49:18.084Z,5.60
2023-04-26T02:52:03.466Z,5.60
2023-04-26T02:54:48.774Z,5.70
2023-04-26T02:57:34.380Z,5.60
2023-04-26T03:00:19.902Z,5.40
2023-04-26T03:03:05.741Z,5.20
2023-04-26T03:05:51.373Z,5.10
2023-04-26T03:08:36.989Z,5.10
2023-04-26T03:11:22.301Z,5.00
2023-04-26T03:14:08.042Z,5.40
2023-04-26T03:19:39.118Z,5.20
2023-04-26T03:22:24.470Z,5.90
2023-04-26T03:25:10.076Z,5.20
2023-04-26T03:27:56.691Z,5.10
2023-04-26T03:30:42.014Z,5.10
2023-04-26T03:33:27.356Z,5.10
2023-04-26T03:36:12.824Z,5.10
2023-04-26T03:38:58.352Z,5.10
2023-04-26T03:41:43.791Z,5.10
2023-04-26T03:44:31.049Z,5.10
2023-04-26T03:47:16.962Z,5.10
2023-04-26T03:50:02.386Z,5.10
2023-04-26T03:52:47.981Z,5.20
2023-04-26T03:55:33.238Z,6.10
2023-04-26T03:58:18.521Z,5.20
2023-04-26T04:01:03.909Z,5.10
2023-04-26T04:03:49.730Z,5.10
2023-04-26T04:06:35.507Z,5.00
2023-04-26T04:09:20.960Z,5.00
2023-04-26T04:12:07.214Z,5.00
2023-04-26T04:14:53.113Z,4.90
2023-04-26T04:17:38.969Z,4.90
2023-04-26T04:20:24.873Z,4.90
2023-04-26T04:23:10.968Z,4.80
2023-04-26T04:25:56.541Z,4.90
2023-04-26T04:28:42.364Z,4.80
2023-04-26T04:31:27.768Z,4.70
2023-04-26T04:34:12.940Z,4.70
2023-04-26T04:36:58.517Z,4.70
2023-04-26T04:39:44.340Z,4.70
2023-04-26T04:42:29.868Z,4.60
2023-04-26T04:45:15.690Z,4.60
2023-04-26T04:48:01.577Z,4.60
2023-04-26T04:50:47.219Z,4.90
2023-04-26T04:53:32.554Z,4.70
2023-04-26T04:56:19.559Z,7.40
2023-04-26T04:59:05.011Z,5.10
2023-04-26T05:01:51.358Z,4.80
2023-04-26T05:04:37.396Z,4.80
2023-04-26T05:07:24.424Z,4.80
2023-04-26T05:10:11.034Z,6.10
2023-04-26T05:12:56.854Z,4.90
2023-04-26T05:15:42.103Z,5.00
2023-04-26T05:18:27.525Z,6.40
2023-04-26T05:21:12.941Z,5.10
2023-04-26T05:23:58.459Z,5.30
2023-04-26T05:26:43.980Z,5.20
2023-04-26T05:29:31.105Z,5.30
2023-04-26T05:32:16.597Z,5.40
2023-04-26T05:35:02.733Z,5.40
2023-04-26T05:37:48.255Z,5.40
2023-04-26T05:40:33.515Z,5.60
2023-04-26T05:43:18.934Z,5.70
2023-04-26T05:46:04.429Z,5.80
2023-04-26T05:48:49.922Z,5.80
2023-04-26T05:51:35.708Z,5.90
2023-04-26T05:54:22.146Z,6.40
2023-04-26T05:57:07.591Z,6.60
2023-04-26T05:59:52.799Z,6.90
2023-04-26T06:02:38.497Z,7.10
2023-04-26T06:05:24.428Z,7.20
2023-04-26T06:08:09.943Z,7.50
2023-04-26T06:10:55.267Z,8.30
2023-04-26T06:13:40.811Z,8.00
2023-04-26T06:16:26.524Z,8.10
2023-04-26T06:19:11.736Z,9.00
2023-04-26T06:21:57.529Z,10.30
2023-04-26T06:24:42.789Z,8.90
2023-04-26T06:27:28.659Z,8.90
2023-04-26T06:30:14.225Z,8.80
2023-04-26T06:33:01.086Z,9.00
2023-04-26T06:35:46.894Z,9.50
2023-04-26T06:38:32.529Z,10.20
2023-04-26T06:41:18.046Z,9.50
2023-04-26T06:44:03.499Z,9.60
2023-04-26T06:46:49.729Z,8.80
2023-04-26T06:49:35.840Z,8.70
2023-04-26T06:52:21.723Z,8.40
2023-04-26T06:55:07.670Z,8.10
2023-04-26T06:57:53.027Z,8.00
2023-04-26T07:00:38.552Z,7.70
2023-04-26T07:03:24.854Z,8.10
2023-04-26T07:06:10.748Z,8.20
2023-04-26T07:08:56.864Z,8.60
2023-04-26T07:11:42.500Z,8.60
2023-04-26T07:14:27.987Z,9.20
2023-04-26T07:17:15.913Z,9.60
2023-04-26T07:20:01.345Z,10.10
2023-04-26T07:22:47.553Z,10.60
2023-04-26T07:25:33.841Z,10.70
2023-04-26T07:28:19.273Z,10.80
2023-04-26T07:31:07.795Z,11.20
2023-04-26T07:33:54.825Z,10.80
2023-04-26T07:36:40.464Z,12.50
2023-04-26T07:39:25.808Z,10.80
2023-04-26T07:42:11.133Z,10.80
2023-04-26T07:44:56.347Z,12.00
2023-04-26T07:47:41.978Z,10.60
2023-04-26T07:50:27.462Z,10.80
2023-04-26T07:53:13.010Z,11.00
2023-04-26T07:55:58.619Z,11.30
2023-04-26T07:58:44.255Z,12.10
2023-04-26T08:01:29.589Z,12.30
2023-04-26T08:04:15.171Z,12.30
2023-04-26T08:07:02.158Z,12.20
2023-04-26T08:09:49.640Z,12.30
2023-04-26T08:12:37.203Z,12.30
2023-04-26T08:15:22.992Z,11.90
2023-04-26T08:18:08.403Z,12.00
2023-04-26T08:20:55.384Z,12.40
2023-04-26T08:23:41.525Z,12.90
2023-04-26T08:26:27.112Z,12.20
2023-04-26T08:29:12.293Z,12.30
2023-04-26T08:31:57.831Z,12.80
2023-04-26T08:34:43.701Z,12.30
2023-04-26T08:37:29.629Z,13.20
2023-04-26T08:40:19.745Z,13.40
2023-04-26T08:43:05.792Z,14.90
2023-04-26T08:45:52.372Z,14.60
2023-04-26T08:48:39.291Z,14.20
2023-04-26T08:51:26.036Z,13.60
2023-04-26T08:54:12.073Z,13.10
2023-04-26T08:56:59.801Z,13.50
2023-04-26T08:59:46.335Z,14.20
2023-04-26T09:02:32.087Z,14.50
2023-04-26T09:05:23.579Z,13.50
2023-04-26T09:08:09.552Z,13.60
2023-04-26T09:10:54.853Z,14.30
2023-04-26T09:13:40.410Z,14.80
2023-04-26T09:16:36.913Z,15.50
2023-04-26T09:19:42.929Z,15.90
2023-04-26T09:22:37.259Z,16.10
2023-04-26T09:25:35.449Z,16.10
2023-04-26T09:28:22.579Z,16.70
2023-04-26T09:31:08.325Z,17.20
2023-04-26T09:34:01.160Z,17.10
2023-04-26T09:36:55.615Z,17.00
2023-04-26T09:39:42.045Z,17.20
2023-04-26T09:42:27.405Z,16.50
2023-04-26T09:45:13.514Z,16.10
2023-04-26T09:48:16.696Z,17.00
2023-04-26T09:51:05.005Z,17.70
2023-04-26T09:53:51.038Z,17.80
2023-04-26T09:56:37.121Z,16.70
2023-04-26T09:59:22.684Z,16.10
2023-04-26T10:02:14.367Z,16.90
2023-04-26T10:05:02.058Z,17.10
2023-04-26T10:07:51.850Z,17.10
2023-04-26T10:10:38.156Z,16.70
2023-04-26T10:13:23.841Z,16.50
2023-04-26T10:16:12.496Z,17.50
2023-04-26T10:18:59.032Z,17.30
2023-04-26T10:21:44.901Z,18.00
2023-04-26T10:24:30.624Z,17.80
2023-04-26T10:27:16.345Z,16.80
2023-04-26T10:30:09.357Z,17.60
2023-04-26T10:32:58.173Z,18.20
2023-04-26T10:36:04.102Z,18.30
2023-04-26T10:39:22.331Z,18.80
2023-04-26T10:42:25.903Z,19.30
2023-04-26T10:45:28.269Z,18.10
2023-04-26T10:48:17.903Z,18.30
2023-04-26T10:51:07.920Z,17.30
2023-04-26T10:53:53.811Z,17.40
2023-04-26T10:56:39.520Z,17.00
2023-04-26T10:59:39.704Z,17.30
2023-04-26T11:02:56.078Z,17.60
2023-04-26T11:05:51.987Z,17.80
2023-04-26T11:08:37.413Z,17.80
2023-04-26T11:11:27.204Z,17.50
2023-04-26T11:14:14.578Z,18.20
2023-04-26T11:17:03.599Z,18.40
2023-04-26T11:19:48.896Z,19.90
2023-04-26T11:22:34.884Z,17.70
2023-04-26T11:25:20.611Z,17.90
2023-04-26T11:28:06.973Z,18.20
2023-04-26T11:30:52.818Z,18.50
2023-04-26T11:33:38.339Z,18.90
2023-04-26T11:36:25.052Z,18.60
2023-04-26T11:39:13.100Z,20.00
2023-04-26T11:42:09.887Z,18.50
2023-04-26T11:44:59.429Z,17.90
2023-04-26T11:47:47.638Z,17.80
2023-04-26T11:50:34.277Z,17.90
2023-04-26T11:53:19.924Z,19.00
2023-04-26T11:56:18.779Z,18.80
2023-04-26T11:59:04.217Z,18.40
2023-04-26T12:01:52.617Z,19.00
2023-04-26T12:04:40.896Z,19.20
2023-04-26T12:07:27.255Z,18.20
2023-04-26T12:10:17.665Z,17.90
2023-04-26T12:13:03.292Z,17.80
2023-04-26T12:15:50.451Z,17.70
2023-04-26T12:18:38.712Z,17.30
2023-04-26T12:21:25.567Z,17.90
2023-04-26T12:24:29.763Z,18.10
2023-04-26T12:27:21.956Z,17.70
2023-04-26T12:30:08.013Z,18.20
2023-04-26T12:32:57.646Z,18.60
2023-04-26T12:35:46.969Z,18.70
2023-04-26T12:38:32.534Z,18.00
2023-04-26T12:41:17.960Z,19.80
2023-04-26T12:44:03.507Z,18.80
2023-04-26T12:46:49.536Z,18.60
2023-04-26T12:49:34.998Z,18.40
2023-04-26T12:52:20.508Z,18.60
2023-04-26T12:55:08.302Z,18.60
2023-04-26T12:57:53.583Z,18.80
2023-04-26T13:00:39.178Z,18.80
2023-04-26T13:03:24.695Z,19.10
2023-04-26T13:06:10.127Z,20.00
2023-04-26T13:08:55.876Z,18.40
2023-04-26T13:11:41.657Z,18.70
2023-04-26T13:14:27.303Z,19.00
2023-04-26T13:17:12.995Z,18.70
2023-04-26T13:19:58.252Z,18.40
2023-04-26T13:22:43.796Z,19.40
2023-04-26T13:25:29.727Z,17.80
2023-04-26T13:28:15.345Z,18.00
2023-04-26T13:31:01.607Z,18.80
2023-04-26T13:33:49.232Z,18.70
2023-04-26T13:36:36.646Z,18.80
2023-04-26T13:39:21.850Z,19.30
2023-04-26T13:42:07.501Z,19.40
2023-04-26T13:44:53.060Z,19.20
2023-04-26T13:47:38.425Z,19.50
2023-04-26T13:50:24.111Z,19.60
2023-04-26T13:53:09.601Z,18.90
2023-04-26T13:55:55.163Z,18.80
2023-04-26T13:58:42.653Z,19.20
2023-04-26T14:01:28.371Z,19.10
2023-04-26T14:04:13.782Z,19.30
2023-04-26T14:06:59.601Z,19.10
2023-04-26T14:09:45.151Z,19.60
2023-04-26T14:12:31.067Z,19.10
2023-04-26T14:15:16.781Z,19.60
2023-04-26T14:18:02.348Z,18.50
2023-04-26T14:20:48.392Z,19.50
2023-04-26T14:23:34.126Z,18.70
2023-04-26T14:26:20.404Z,18.40
2023-04-26T14:29:06.066Z,18.20
2023-04-26T14:31:53.140Z,18.30
2023-04-26T14:34:42.275Z,18.90
2023-04-26T14:37:27.734Z,18.20
2023-04-26T14:40:13.849Z,17.90
2023-04-26T14:42:59.117Z,17.60
2023-04-26T14:45:45.146Z,17.50
2023-04-26T14:48:30.907Z,17.90
2023-04-26T14:51:16.610Z,18.80
2023-04-26T14:54:02.306Z,17.80
2023-04-26T14:56:47.942Z,17.60
2023-04-26T14:59:33.494Z,17.70
2023-04-26T15:02:19.004Z,18.00
2023-04-26T15:05:04.751Z,17.80
2023-04-26T15:07:51.110Z,17.60
2023-04-26T15:10:37.040Z,17.80
2023-04-26T15:13:22.392Z,18.10
2023-04-26T15:16:08.489Z,18.20
2023-04-26T15:18:53.815Z,18.40
2023-04-26T15:21:39.474Z,18.50
2023-04-26T15:24:25.189Z,18.50
2023-04-26T15:27:10.539Z,19.00
2023-04-26T15:29:56.757Z,18.20
2023-04-26T15:32:42.608Z,18.50
2023-04-26T15:35:27.888Z,17.80
2023-04-26T15:38:13.588Z,17.80
2023-04-26T15:40:59.040Z,18.40
2023-04-26T15:43:44.770Z,18.20
2023-04-26T15:46:30.289Z,17.80
2023-04-26T15:49:16.153Z,17.60
2023-04-26T15:52:01.539Z,18.10
2023-04-26T15:54:47.205Z,18.40
2023-04-26T15:57:32.726Z,18.90
2023-04-26T16:00:18.302Z,18.80
2023-04-26T16:03:03.782Z,18.20
2023-04-26T16:05:49.606Z,18.40
2023-04-26T16:08:40.399Z,18.30
2023-04-26T16:11:26.770Z,17.80
2023-04-26T16:14:12.273Z,17.90
2023-04-26T16:17:00.408Z,17.70
2023-04-26T16:19:45.839Z,17.60
2023-04-26T16:22:31.382Z,17.90
2023-04-26T16:25:17.342Z,17.50
2023-04-26T16:28:03.120Z,17.30
2023-04-26T16:30:49.256Z,17.60
2023-04-26T16:33:34.667Z,17.20
2023-04-26T16:36:20.659Z,17.20
2023-04-26T16:39:07.646Z,17.10
2023-04-26T16:41:54.116Z,17.70
2023-04-26T16:44:40.448Z,18.40
2023-04-26T16:47:26.590Z,17.10
2023-04-26T16:50:11.975Z,17.20
2023-04-26T16:52:58.261Z,17.20
2023-04-26T16:55:43.765Z,16.90
2023-04-26T16:58:29.574Z,16.80
2023-04-26T17:01:14.918Z,16.60
2023-04-26T17:04:00.690Z,17.10
2023-04-26T17:06:46.217Z,16.60
2023-04-26T17:09:31.515Z,16.70
2023-04-26T17:12:17.002Z,16.60
2023-04-26T17:15:04.442Z,16.50
2023-04-26T17:17:51.096Z,16.50
2023-04-26T17:20:36.912Z,16.90
2023-04-26T17:23:22.418Z,17.20
2023-04-26T17:26:07.725Z,16.10
2023-04-26T17:28:54.786Z,16.10
2023-04-26T17:31:40.249Z,16.00
2023-04-26T17:34:26.626Z,16.10
2023-04-26T17:37:12.294Z,16.20
2023-04-26T17:39:57.980Z,16.20
2023-04-26T17:42:43.509Z,16.70
2023-04-26T17:45:28.767Z,16.00
2023-04-26T17:48:14.306Z,15.90
2023-04-26T17:50:59.566Z,16.40
2023-04-26T17:53:45.137Z,15.70
2023-04-26T17:56:30.544Z,15.90
2023-04-26T17:59:15.869Z,15.60
2023-04-26T18:02:02.910Z,15.60
2023-04-26T18:04:48.470Z,15.50
2023-04-26T18:07:34.284Z,15.50
2023-04-26T18:10:19.723Z,15.60
2023-04-26T18:13:05.677Z,15.60
2023-04-26T18:15:51.467Z,15.70
2023-04-26T18:18:37.018Z,15.50
2023-04-26T18:21:22.335Z,15.50
2023-04-26T18:24:08.166Z,15.50
2023-04-26T18:26:53.872Z,15.60
2023-04-26T18:29:39.453Z,15.50
2023-04-26T18:32:24.910Z,15.60
2023-04-26T18:35:10.315Z,15.60
2023-04-26T18:37:55.665Z,15.70
2023-04-26T18:40:44.064Z,15.50
2023-04-26T18:43:29.570Z,15.50
2023-04-26T18:46:15.476Z,15.50
2023-04-26T18:49:01.334Z,15.50
2023-04-26T18:51:46.805Z,15.40
2023-04-26T18:54:33.380Z,15.50
2023-04-26T18:57:22.427Z,16.40
2023-04-26T19:00:08.404Z,15.70
2023-04-26T19:02:54.946Z,15.50
2023-04-26T19:05:43.703Z,15.50
2023-04-26T19:08:29.222Z,15.50
2023-04-26T19:11:14.810Z,15.40
2023-04-26T19:14:00.465Z,15.30
2023-04-26T19:16:46.222Z,15.90
2023-04-26T19:19:31.936Z,15.20
2023-04-26T19:22:17.297Z,16.90
2023-04-26T19:25:04.508Z,15.70
2023-04-26T19:27:50.524Z,14.90
2023-04-26T19:30:36.374Z,14.80
2023-04-26T19:33:21.831Z,14.80
2023-04-26T19:36:08.680Z,14.90
2023-04-26T19:38:54.184Z,14.80
2023-04-26T19:41:39.584Z,14.70
2023-04-26T19:44:26.259Z,14.70
2023-04-26T19:47:11.521Z,14.70
2023-04-26T19:49:57.982Z,14.70
2023-04-26T19:52:43.701Z,14.50
2023-04-26T19:55:29.601Z,14.80
2023-04-26T19:58:14.880Z,14.40
2023-04-26T20:01:00.264Z,14.30
2023-04-26T20:03:45.547Z,14.30
2023-04-26T20:06:31.694Z,14.30
2023-04-26T20:09:17.335Z,14.20
2023-04-26T20:12:03.234Z,14.30
2023-04-26T20:14:49.780Z,15.20
2023-04-26T20:17:34.988Z,14.30
2023-04-26T20:20:20.453Z,14.20
2023-04-26T20:23:07.524Z,14.20
2023-04-26T20:25:53.053Z,14.20
2023-04-26T20:28:40.049Z,14.10
2023-04-26T20:31:25.699Z,13.80
2023-04-26T20:34:11.843Z,14.80
2023-04-26T20:36:57.717Z,14.00
2023-04-26T20:39:43.378Z,13.70
2023-04-26T20:42:28.679Z,13.80
2023-04-26T20:45:14.521Z,14.30
2023-04-26T20:48:00.136Z,14.00
2023-04-26T20:50:46.064Z,13.70
2023-04-26T20:53:31.734Z,13.70
2023-04-26T20:56:16.950Z,13.70
2023-04-26T20:59:02.634Z,13.70
2023-04-26T21:01:48.147Z,13.70
2023-04-26T21:04:35.243Z,15.20
2023-04-26T21:07:21.216Z,14.90
2023-04-26T21:10:07.185Z,14.60
2023-04-26T21:12:52.811Z,13.60
2023-04-26T21:15:38.244Z,13.70
2023-04-26T21:18:23.457Z,13.70
2023-04-26T21:21:09.064Z,13.60
2023-04-26T21:23:54.486Z,13.90
2023-04-26T21:26:40.206Z,13.20
2023-04-26T21:29:25.519Z,13.40
2023-04-26T21:32:10.611Z,13.40
2023-04-26T21:34:56.199Z,13.40
2023-04-26T21:37:41.492Z,13.30
2023-04-26T21:40:27.180Z,13.30
2023-04-26T21:43:15.568Z,13.80
2023-04-26T21:46:01.101Z,13.00
2023-04-26T21:48:46.545Z,13.30
2023-04-26T21:51:32.033Z,13.20
2023-04-26T21:54:17.649Z,12.80
2023-04-26T21:57:07.222Z,13.80
2023-04-26T21:59:52.445Z,12.80
2023-04-26T22:02:39.005Z,12.90
2023-04-26T22:05:26.022Z,12.70
2023-04-26T22:08:11.162Z,12.80
2023-04-26T22:10:56.913Z,12.60
2023-04-26T22:13:42.335Z,12.60
2023-04-26T22:16:27.733Z,12.30
2023-04-26T22:19:13.651Z,12.50
2023-04-26T22:21:59.151Z,12.50
2023-04-26T22:24:44.613Z,12.40
2023-04-26T22:27:31.925Z,12.40
2023-04-26T22:30:25.553Z,12.50
2023-04-26T22:33:12.328Z,12.60
2023-04-26T22:35:58.207Z,12.60
2023-04-26T22:38:43.886Z,12.50
2023-04-26T22:41:29.234Z,12.60
2023-04-26T22:44:15.294Z,12.50
2023-04-26T22:47:00.652Z,13.60
2023-04-26T22:49:45.867Z,12.60
2023-04-26T22:52:32.229Z,12.80
2023-04-26T22:55:18.243Z,12.50
2023-04-26T22:58:03.727Z,12.50
2023-04-26T23:00:49.364Z,13.10
2023-04-26T23:03:37.947Z,12.40
2023-04-26T23:06:23.569Z,12.40
2023-04-26T23:09:09.462Z,12.70
2023-04-26T23:11:55.321Z,12.20
2023-04-26T23:14:40.817Z,12.10
2023-04-26T23:17:27.737Z,13.80
2023-04-26T23:20:13.244Z,12.00
2023-04-26T23:22:58.372Z,11.90
2023-04-26T23:25:44.186Z,11.90
2023-04-26T23:28:29.487Z,11.90
2023-04-26T23:31:15.116Z,11.90
2023-04-26T23:34:01.040Z,12.10
2023-04-26T23:36:46.695Z,11.80
2023-04-26T23:39:32.438Z,11.80
2023-04-26T23:42:18.132Z,11.80
2023-04-26T23:45:04.503Z,13.70
2023-04-26T23:47:50.163Z,11.70
2023-04-26T23:50:35.870Z,11.70
2023-04-26T23:53:21.346Z,12.10
2023-04-26T23:56:07.757Z,12.20
2023-04-26T23:58:53.298Z,11.70
